sensor_id;sensor_type;location;lat;lon;timestamp;P1;durP1;ratioP1;P2;durP2;ratioP2
16667;SDS011;8447;52.630;4.734;2023-08-06T00:01:49;4.17;;;3.77;;
16667;SDS011;8447;52.630;4.734;2023-08-06T00:04:16;4.83;;;3.63;;
16667;SDS011;8447;52.630;4.734;2023-08-06T00:06:42;5.27;;;3.73;;
16667;SDS011;8447;52.630;4.734;2023-08-06T00:09:08;4.67;;;3.80;;
16667;SDS011;8447;52.630;4.734;2023-08-06T00:11:36;5.53;;;3.57;;
16667;SDS011;8447;52.630;4.734;2023-08-06T00:14:03;5.17;;;3.37;;
16667;SDS011;8447;52.630;4.734;2023-08-06T00:16:29;4.03;;;3.53;;
16667;SDS011;8447;52.630;4.734;2023-08-06T00:18:56;3.90;;;3.50;;
16667;SDS011;8447;52.630;4.734;2023-08-06T00:21:22;4.10;;;3.53;;
16667;SDS011;8447;52.630;4.734;2023-08-06T00:23:49;4.87;;;4.00;;
16667;SDS011;8447;52.630;4.734;2023-08-06T00:26:15;3.93;;;3.53;;
16667;SDS011;8447;52.630;4.734;2023-08-06T00:28:43;4.47;;;3.27;;
16667;SDS011;8447;52.630;4.734;2023-08-06T00:31:09;3.80;;;3.20;;
16667;SDS011;8447;52.630;4.734;2023-08-06T00:33:35;4.10;;;3.30;;
16667;SDS011;8447;52.630;4.734;2023-08-06T00:36:02;6.50;;;3.70;;
16667;SDS011;8447;52.630;4.734;2023-08-06T00:38:28;5.43;;;3.20;;
16667;SDS011;8447;52.630;4.734;2023-08-06T00:40:55;4.53;;;3.90;;
16667;SDS011;8447;52.630;4.734;2023-08-06T00:43:21;4.23;;;3.73;;
16667;SDS011;8447;52.630;4.734;2023-08-06T00:45:49;5.10;;;4.10;;
16667;SDS011;8447;52.630;4.734;2023-08-06T00:48:15;4.93;;;4.53;;
16667;SDS011;8447;52.630;4.734;2023-08-06T00:50:42;5.17;;;4.23;;
16667;SDS011;8447;52.630;4.734;2023-08-06T00:53:08;5.67;;;3.97;;
16667;SDS011;8447;52.630;4.734;2023-08-06T00:55:35;4.40;;;4.00;;
16667;SDS011;8447;52.630;4.734;2023-08-06T00:58:01;6.43;;;4.70;;
16667;SDS011;8447;52.630;4.734;2023-08-06T01:00:28;5.30;;;3.80;;
16667;SDS011;8447;52.630;4.734;2023-08-06T01:02:56;6.80;;;4.73;;
16667;SDS011;8447;52.630;4.734;2023-08-06T01:05:22;5.27;;;4.23;;
16667;SDS011;8447;52.630;4.734;2023-08-06T01:07:51;6.27;;;4.10;;
16667;SDS011;8447;52.630;4.734;2023-08-06T01:10:29;4.07;;;3.67;;
16667;SDS011;8447;52.630;4.734;2023-08-06T01:13:01;4.77;;;4.00;;
16667;SDS011;8447;52.630;4.734;2023-08-06T01:15:32;5.23;;;3.90;;
16667;SDS011;8447;52.630;4.734;2023-08-06T01:18:00;5.33;;;3.70;;
16667;SDS011;8447;52.630;4.734;2023-08-06T01:20:31;5.13;;;4.07;;
16667;SDS011;8447;52.630;4.734;2023-08-06T01:22:57;5.47;;;3.87;;
16667;SDS011;8447;52.630;4.734;2023-08-06T01:25:26;4.70;;;3.47;;
16667;SDS011;8447;52.630;4.734;2023-08-06T01:27:55;4.57;;;3.90;;
16667;SDS011;8447;52.630;4.734;2023-08-06T01:30:25;4.10;;;3.63;;
16667;SDS011;8447;52.630;4.734;2023-08-06T01:32:53;5.90;;;3.17;;
16667;SDS011;8447;52.630;4.734;2023-08-06T01:35:21;3.07;;;2.70;;
16667;SDS011;8447;52.630;4.734;2023-08-06T01:37:50;6.33;;;2.90;;
16667;SDS011;8447;52.630;4.734;2023-08-06T01:40:17;3.63;;;2.87;;
16667;SDS011;8447;52.630;4.734;2023-08-06T01:42:43;3.63;;;2.50;;
16667;SDS011;8447;52.630;4.734;2023-08-06T01:45:09;2.87;;;2.47;;
16667;SDS011;8447;52.630;4.734;2023-08-06T01:47:36;3.57;;;2.23;;
16667;SDS011;8447;52.630;4.734;2023-08-06T01:50:03;3.83;;;2.43;;
16667;SDS011;8447;52.630;4.734;2023-08-06T01:52:29;5.07;;;1.90;;
16667;SDS011;8447;52.630;4.734;2023-08-06T01:54:57;2.13;;;1.77;;
16667;SDS011;8447;52.630;4.734;2023-08-06T01:57:23;4.63;;;1.80;;
16667;SDS011;8447;52.630;4.734;2023-08-06T01:59:50;4.07;;;1.60;;
16667;SDS011;8447;52.630;4.734;2023-08-06T02:02:16;2.20;;;1.50;;
16667;SDS011;8447;52.630;4.734;2023-08-06T02:04:42;3.07;;;1.40;;
16667;SDS011;8447;52.630;4.734;2023-08-06T02:07:09;1.63;;;1.43;;
16667;SDS011;8447;52.630;4.734;2023-08-06T02:09:35;3.47;;;1.63;;
16667;SDS011;8447;52.630;4.734;2023-08-06T02:12:03;1.73;;;1.00;;
16667;SDS011;8447;52.630;4.734;2023-08-06T02:14:30;1.80;;;1.20;;
16667;SDS011;8447;52.630;4.734;2023-08-06T02:16:56;2.83;;;1.40;;
16667;SDS011;8447;52.630;4.734;2023-08-06T02:19:23;1.50;;;1.07;;
16667;SDS011;8447;52.630;4.734;2023-08-06T02:21:49;3.47;;;1.20;;
16667;SDS011;8447;52.630;4.734;2023-08-06T02:24:15;3.43;;;1.20;;
16667;SDS011;8447;52.630;4.734;2023-08-06T02:26:42;1.23;;;0.90;;
16667;SDS011;8447;52.630;4.734;2023-08-06T02:29:09;2.73;;;1.20;;
16667;SDS011;8447;52.630;4.734;2023-08-06T02:31:36;1.53;;;1.00;;
16667;SDS011;8447;52.630;4.734;2023-08-06T02:34:02;1.23;;;0.90;;
16667;SDS011;8447;52.630;4.734;2023-08-06T02:36:28;1.30;;;0.90;;
16667;SDS011;8447;52.630;4.734;2023-08-06T02:38:55;3.17;;;1.07;;
16667;SDS011;8447;52.630;4.734;2023-08-06T02:41:21;1.83;;;1.17;;
16667;SDS011;8447;52.630;4.734;2023-08-06T02:43:47;3.17;;;0.90;;
16667;SDS011;8447;52.630;4.734;2023-08-06T02:46:15;1.50;;;0.90;;
16667;SDS011;8447;52.630;4.734;2023-08-06T02:48:42;2.73;;;1.30;;
16667;SDS011;8447;52.630;4.734;2023-08-06T02:51:08;1.93;;;1.20;;
16667;SDS011;8447;52.630;4.734;2023-08-06T02:53:34;2.07;;;1.20;;
16667;SDS011;8447;52.630;4.734;2023-08-06T02:56:01;1.80;;;0.90;;
16667;SDS011;8447;52.630;4.734;2023-08-06T02:58:27;1.83;;;1.10;;
16667;SDS011;8447;52.630;4.734;2023-08-06T03:01:00;3.07;;;1.00;;
16667;SDS011;8447;52.630;4.734;2023-08-06T03:03:29;1.00;;;0.80;;
16667;SDS011;8447;52.630;4.734;2023-08-06T03:05:55;2.37;;;0.97;;
16667;SDS011;8447;52.630;4.734;2023-08-06T03:08:22;1.93;;;1.00;;
16667;SDS011;8447;52.630;4.734;2023-08-06T03:10:48;2.00;;;0.90;;
16667;SDS011;8447;52.630;4.734;2023-08-06T03:13:14;1.20;;;0.60;;
16667;SDS011;8447;52.630;4.734;2023-08-06T03:15:41;0.93;;;0.80;;
16667;SDS011;8447;52.630;4.734;2023-08-06T03:18:07;1.63;;;1.10;;
16667;SDS011;8447;52.630;4.734;2023-08-06T03:20:37;3.20;;;0.80;;
16667;SDS011;8447;52.630;4.734;2023-08-06T03:23:03;1.20;;;0.83;;
16667;SDS011;8447;52.630;4.734;2023-08-06T03:25:30;1.10;;;1.00;;
16667;SDS011;8447;52.630;4.734;2023-08-06T03:27:56;1.33;;;1.10;;
16667;SDS011;8447;52.630;4.734;2023-08-06T03:30:22;1.53;;;1.43;;
16667;SDS011;8447;52.630;4.734;2023-08-06T03:32:49;2.57;;;1.53;;
16667;SDS011;8447;52.630;4.734;2023-08-06T03:35:15;2.30;;;2.10;;
16667;SDS011;8447;52.630;4.734;2023-08-06T03:37:43;3.77;;;1.97;;
16667;SDS011;8447;52.630;4.734;2023-08-06T03:40:10;2.27;;;2.10;;
16667;SDS011;8447;52.630;4.734;2023-08-06T03:42:36;2.80;;;2.50;;
16667;SDS011;8447;52.630;4.734;2023-08-06T03:45:03;2.80;;;2.47;;
16667;SDS011;8447;52.630;4.734;2023-08-06T03:47:29;3.70;;;2.70;;
16667;SDS011;8447;52.630;4.734;2023-08-06T03:49:56;2.70;;;2.40;;
16667;SDS011;8447;52.630;4.734;2023-08-06T03:52:22;3.13;;;2.43;;
16667;SDS011;8447;52.630;4.734;2023-08-06T03:54:50;2.50;;;2.30;;
16667;SDS011;8447;52.630;4.734;2023-08-06T03:57:16;2.50;;;2.30;;
16667;SDS011;8447;52.630;4.734;2023-08-06T03:59:43;2.33;;;1.90;;
16667;SDS011;8447;52.630;4.734;2023-08-06T04:02:09;1.40;;;1.30;;
16667;SDS011;8447;52.630;4.734;2023-08-06T04:04:35;1.90;;;1.50;;
16667;SDS011;8447;52.630;4.734;2023-08-06T04:07:02;3.13;;;1.60;;
16667;SDS011;8447;52.630;4.734;2023-08-06T04:09:29;2.17;;;1.57;;
16667;SDS011;8447;52.630;4.734;2023-08-06T04:11:56;1.60;;;1.43;;
16667;SDS011;8447;52.630;4.734;2023-08-06T04:14:23;1.43;;;1.30;;
16667;SDS011;8447;52.630;4.734;2023-08-06T04:16:50;2.63;;;1.50;;
16667;SDS011;8447;52.630;4.734;2023-08-06T04:19:16;2.17;;;1.97;;
16667;SDS011;8447;52.630;4.734;2023-08-06T04:21:42;2.73;;;2.20;;
16667;SDS011;8447;52.630;4.734;2023-08-06T04:24:09;2.27;;;2.07;;
16667;SDS011;8447;52.630;4.734;2023-08-06T04:26:35;3.00;;;2.70;;
16667;SDS011;8447;52.630;4.734;2023-08-06T04:29:03;3.60;;;3.30;;
16667;SDS011;8447;52.630;4.734;2023-08-06T04:31:30;4.87;;;3.80;;
16667;SDS011;8447;52.630;4.734;2023-08-06T04:33:56;4.13;;;3.53;;
16667;SDS011;8447;52.630;4.734;2023-08-06T04:36:22;4.57;;;4.17;;
16667;SDS011;8447;52.630;4.734;2023-08-06T04:38:49;5.67;;;4.67;;
16667;SDS011;8447;52.630;4.734;2023-08-06T04:41:15;8.93;;;5.20;;
16667;SDS011;8447;52.630;4.734;2023-08-06T04:43:41;5.60;;;4.87;;
16667;SDS011;8447;52.630;4.734;2023-08-06T04:46:09;5.77;;;4.97;;
16667;SDS011;8447;52.630;4.734;2023-08-06T04:48:35;8.03;;;4.90;;
16667;SDS011;8447;52.630;4.734;2023-08-06T04:51:02;7.83;;;5.27;;
16667;SDS011;8447;52.630;4.734;2023-08-06T04:53:28;8.17;;;5.77;;
16667;SDS011;8447;52.630;4.734;2023-08-06T04:55:54;7.03;;;5.70;;
16667;SDS011;8447;52.630;4.734;2023-08-06T04:58:21;6.87;;;5.67;;
16667;SDS011;8447;52.630;4.734;2023-08-06T05:00:47;7.43;;;4.97;;
16667;SDS011;8447;52.630;4.734;2023-08-06T05:03:15;5.73;;;5.10;;
16667;SDS011;8447;52.630;4.734;2023-08-06T05:05:41;5.20;;;4.70;;
16667;SDS011;8447;52.630;4.734;2023-08-06T05:08:13;5.00;;;4.47;;
16667;SDS011;8447;52.630;4.734;2023-08-06T05:10:41;6.37;;;4.30;;
16667;SDS011;8447;52.630;4.734;2023-08-06T05:13:08;5.03;;;4.17;;
16667;SDS011;8447;52.630;4.734;2023-08-06T05:15:34;5.13;;;4.20;;
16667;SDS011;8447;52.630;4.734;2023-08-06T05:18:00;4.67;;;4.03;;
16667;SDS011;8447;52.630;4.734;2023-08-06T05:20:28;5.63;;;4.37;;
16667;SDS011;8447;52.630;4.734;2023-08-06T05:22:55;4.57;;;4.00;;
16667;SDS011;8447;52.630;4.734;2023-08-06T05:25:21;4.23;;;3.83;;
16667;SDS011;8447;52.630;4.734;2023-08-06T05:27:47;3.83;;;3.53;;
16667;SDS011;8447;52.630;4.734;2023-08-06T05:30:14;4.47;;;3.90;;
16667;SDS011;8447;52.630;4.734;2023-08-06T05:32:40;5.03;;;3.47;;
16667;SDS011;8447;52.630;4.734;2023-08-06T05:35:06;4.77;;;4.07;;
16667;SDS011;8447;52.630;4.734;2023-08-06T05:37:34;3.87;;;3.50;;
16667;SDS011;8447;52.630;4.734;2023-08-06T05:40:00;3.13;;;2.83;;
16667;SDS011;8447;52.630;4.734;2023-08-06T05:42:29;4.73;;;3.17;;
16667;SDS011;8447;52.630;4.734;2023-08-06T05:44:55;3.90;;;2.50;;
16667;SDS011;8447;52.630;4.734;2023-08-06T05:47:22;3.33;;;2.70;;
16667;SDS011;8447;52.630;4.734;2023-08-06T05:49:48;3.50;;;2.23;;
16667;SDS011;8447;52.630;4.734;2023-08-06T05:52:14;4.57;;;2.67;;
16667;SDS011;8447;52.630;4.734;2023-08-06T05:54:42;3.20;;;2.90;;
16667;SDS011;8447;52.630;4.734;2023-08-06T05:57:08;2.90;;;2.60;;
16667;SDS011;8447;52.630;4.734;2023-08-06T05:59:35;3.07;;;2.63;;
16667;SDS011;8447;52.630;4.734;2023-08-06T06:02:01;3.27;;;2.20;;
16667;SDS011;8447;52.630;4.734;2023-08-06T06:04:28;4.10;;;2.27;;
16667;SDS011;8447;52.630;4.734;2023-08-06T06:06:54;3.10;;;2.10;;
16667;SDS011;8447;52.630;4.734;2023-08-06T06:09:20;3.40;;;2.87;;
16667;SDS011;8447;52.630;4.734;2023-08-06T06:11:48;2.60;;;2.40;;
16667;SDS011;8447;52.630;4.734;2023-08-06T06:14:15;3.17;;;2.70;;
16667;SDS011;8447;52.630;4.734;2023-08-06T06:16:41;5.80;;;2.80;;
16667;SDS011;8447;52.630;4.734;2023-08-06T06:19:07;3.17;;;2.60;;
16667;SDS011;8447;52.630;4.734;2023-08-06T06:21:34;5.27;;;2.80;;
16667;SDS011;8447;52.630;4.734;2023-08-06T06:24:00;3.73;;;3.37;;
16667;SDS011;8447;52.630;4.734;2023-08-06T06:26:27;6.23;;;3.07;;
16667;SDS011;8447;52.630;4.734;2023-08-06T06:28:55;2.77;;;2.57;;
16667;SDS011;8447;52.630;4.734;2023-08-06T06:31:21;6.90;;;3.07;;
16667;SDS011;8447;52.630;4.734;2023-08-06T06:33:47;3.27;;;2.77;;
16667;SDS011;8447;52.630;4.734;2023-08-06T06:36:14;3.63;;;2.90;;
16667;SDS011;8447;52.630;4.734;2023-08-06T06:38:40;3.30;;;2.67;;
16667;SDS011;8447;52.630;4.734;2023-08-06T06:41:07;4.13;;;3.00;;
16667;SDS011;8447;52.630;4.734;2023-08-06T06:43:33;3.37;;;2.60;;
16667;SDS011;8447;52.630;4.734;2023-08-06T06:46:01;4.43;;;2.97;;
16667;SDS011;8447;52.630;4.734;2023-08-06T06:48:28;3.43;;;2.80;;
16667;SDS011;8447;52.630;4.734;2023-08-06T06:50:55;5.03;;;2.70;;
16667;SDS011;8447;52.630;4.734;2023-08-06T06:53:21;4.33;;;2.57;;
16667;SDS011;8447;52.630;4.734;2023-08-06T06:55:52;4.97;;;2.80;;
16667;SDS011;8447;52.630;4.734;2023-08-06T06:58:18;3.80;;;2.50;;
16667;SDS011;8447;52.630;4.734;2023-08-06T07:00:46;2.90;;;2.60;;
16667;SDS011;8447;52.630;4.734;2023-08-06T07:03:14;4.13;;;2.90;;
16667;SDS011;8447;52.630;4.734;2023-08-06T07:05:40;3.00;;;2.57;;
16667;SDS011;8447;52.630;4.734;2023-08-06T07:08:07;4.80;;;2.60;;
16667;SDS011;8447;52.630;4.734;2023-08-06T07:10:33;4.93;;;3.00;;
16667;SDS011;8447;52.630;4.734;2023-08-06T07:12:59;3.37;;;2.67;;
16667;SDS011;8447;52.630;4.734;2023-08-06T07:15:26;3.43;;;2.80;;
16667;SDS011;8447;52.630;4.734;2023-08-06T07:17:52;4.40;;;2.80;;
16667;SDS011;8447;52.630;4.734;2023-08-06T07:20:20;4.03;;;2.90;;
16667;SDS011;8447;52.630;4.734;2023-08-06T07:22:46;3.60;;;2.90;;
16667;SDS011;8447;52.630;4.734;2023-08-06T07:25:12;6.00;;;2.63;;
16667;SDS011;8447;52.630;4.734;2023-08-06T07:27:39;7.13;;;2.97;;
16667;SDS011;8447;52.630;4.734;2023-08-06T07:30:05;3.53;;;2.93;;
16667;SDS011;8447;52.630;4.734;2023-08-06T07:32:32;6.40;;;3.23;;
16667;SDS011;8447;52.630;4.734;2023-08-06T07:34:58;3.60;;;2.50;;
16667;SDS011;8447;52.630;4.734;2023-08-06T07:37:27;4.70;;;2.60;;
16667;SDS011;8447;52.630;4.734;2023-08-06T07:39:54;3.37;;;3.00;;
16667;SDS011;8447;52.630;4.734;2023-08-06T07:42:20;3.40;;;2.37;;
16667;SDS011;8447;52.630;4.734;2023-08-06T07:44:49;3.83;;;2.43;;
16667;SDS011;8447;52.630;4.734;2023-08-06T07:47:16;4.00;;;2.33;;
16667;SDS011;8447;52.630;4.734;2023-08-06T07:49:42;5.43;;;2.27;;
16667;SDS011;8447;52.630;4.734;2023-08-06T07:52:08;2.67;;;1.80;;
16667;SDS011;8447;52.630;4.734;2023-08-06T07:54:37;2.73;;;1.77;;
16667;SDS011;8447;52.630;4.734;2023-08-06T07:57:04;3.03;;;1.60;;
16667;SDS011;8447;52.630;4.734;2023-08-06T07:59:30;2.60;;;1.80;;
16667;SDS011;8447;52.630;4.734;2023-08-06T08:01:57;2.73;;;1.80;;
16667;SDS011;8447;52.630;4.734;2023-08-06T08:04:23;3.20;;;2.20;;
16667;SDS011;8447;52.630;4.734;2023-08-06T08:06:50;4.13;;;2.13;;
16667;SDS011;8447;52.630;4.734;2023-08-06T08:09:16;4.63;;;1.93;;
16667;SDS011;8447;52.630;4.734;2023-08-06T08:11:44;3.23;;;2.30;;
16667;SDS011;8447;52.630;4.734;2023-08-06T08:14:10;2.83;;;2.07;;
16667;SDS011;8447;52.630;4.734;2023-08-06T08:16:37;3.27;;;2.37;;
16667;SDS011;8447;52.630;4.734;2023-08-06T08:19:03;3.57;;;1.90;;
16667;SDS011;8447;52.630;4.734;2023-08-06T08:21:30;5.33;;;2.27;;
16667;SDS011;8447;52.630;4.734;2023-08-06T08:23:56;2.73;;;2.03;;
16667;SDS011;8447;52.630;4.734;2023-08-06T08:26:22;3.47;;;2.07;;
16667;SDS011;8447;52.630;4.734;2023-08-06T08:28:50;3.10;;;2.10;;
16667;SDS011;8447;52.630;4.734;2023-08-06T08:31:17;6.70;;;2.33;;
16667;SDS011;8447;52.630;4.734;2023-08-06T08:33:43;3.20;;;1.93;;
16667;SDS011;8447;52.630;4.734;2023-08-06T08:36:10;5.03;;;1.60;;
16667;SDS011;8447;52.630;4.734;2023-08-06T08:38:36;3.87;;;1.73;;
16667;SDS011;8447;52.630;4.734;2023-08-06T08:41:03;4.50;;;2.00;;
16667;SDS011;8447;52.630;4.734;2023-08-06T08:43:29;1.87;;;1.57;;
16667;SDS011;8447;52.630;4.734;2023-08-06T08:45:57;3.43;;;1.63;;
16667;SDS011;8447;52.630;4.734;2023-08-06T08:48:25;3.70;;;1.30;;
16667;SDS011;8447;52.630;4.734;2023-08-06T08:50:52;3.73;;;1.50;;
16667;SDS011;8447;52.630;4.734;2023-08-06T08:53:18;2.73;;;1.07;;
16667;SDS011;8447;52.630;4.734;2023-08-06T08:55:47;2.53;;;1.30;;
16667;SDS011;8447;52.630;4.734;2023-08-06T08:58:13;3.33;;;1.47;;
16667;SDS011;8447;52.630;4.734;2023-08-06T09:00:40;1.90;;;1.13;;
16667;SDS011;8447;52.630;4.734;2023-08-06T09:03:09;3.00;;;1.30;;
16667;SDS011;8447;52.630;4.734;2023-08-06T09:05:35;2.20;;;1.00;;
16667;SDS011;8447;52.630;4.734;2023-08-06T09:08:03;2.60;;;1.10;;
16667;SDS011;8447;52.630;4.734;2023-08-06T09:10:29;3.23;;;1.30;;
16667;SDS011;8447;52.630;4.734;2023-08-06T09:12:56;2.57;;;1.40;;
16667;SDS011;8447;52.630;4.734;2023-08-06T09:15:23;2.07;;;1.20;;
16667;SDS011;8447;52.630;4.734;2023-08-06T09:17:50;1.17;;;0.80;;
16667;SDS011;8447;52.630;4.734;2023-08-06T09:20:18;2.70;;;1.13;;
16667;SDS011;8447;52.630;4.734;2023-08-06T09:22:44;1.97;;;1.00;;
16667;SDS011;8447;52.630;4.734;2023-08-06T09:25:13;2.20;;;0.93;;
16667;SDS011;8447;52.630;4.734;2023-08-06T09:27:46;2.43;;;1.00;;
16667;SDS011;8447;52.630;4.734;2023-08-06T09:30:13;4.00;;;0.93;;
16667;SDS011;8447;52.630;4.734;2023-08-06T09:32:54;3.67;;;2.03;;
16667;SDS011;8447;52.630;4.734;2023-08-06T09:35:22;2.83;;;1.20;;
16667;SDS011;8447;52.630;4.734;2023-08-06T09:37:48;1.50;;;1.27;;
16667;SDS011;8447;52.630;4.734;2023-08-06T09:40:25;1.50;;;1.37;;
16667;SDS011;8447;52.630;4.734;2023-08-06T09:42:51;2.63;;;1.43;;
16667;SDS011;8447;52.630;4.734;2023-08-06T09:45:18;2.27;;;1.43;;
16667;SDS011;8447;52.630;4.734;2023-08-06T09:47:44;8.70;;;4.60;;
16667;SDS011;8447;52.630;4.734;2023-08-06T09:50:14;6.87;;;3.40;;
16667;SDS011;8447;52.630;4.734;2023-08-06T09:52:42;3.87;;;1.50;;
16667;SDS011;8447;52.630;4.734;2023-08-06T09:55:09;0.60;;;0.50;;
16667;SDS011;8447;52.630;4.734;2023-08-06T09:57:36;2.77;;;0.80;;
16667;SDS011;8447;52.630;4.734;2023-08-06T10:00:03;1.77;;;1.40;;
16667;SDS011;8447;52.630;4.734;2023-08-06T10:02:30;5.20;;;2.60;;
16667;SDS011;8447;52.630;4.734;2023-08-06T10:04:58;2.40;;;1.10;;
16667;SDS011;8447;52.630;4.734;2023-08-06T10:07:24;2.13;;;1.30;;
16667;SDS011;8447;52.630;4.734;2023-08-06T10:09:52;5.27;;;1.17;;
16667;SDS011;8447;52.630;4.734;2023-08-06T10:12:18;1.57;;;0.90;;
16667;SDS011;8447;52.630;4.734;2023-08-06T10:14:45;3.90;;;1.10;;
16667;SDS011;8447;52.630;4.734;2023-08-06T10:17:12;3.03;;;0.60;;
16667;SDS011;8447;52.630;4.734;2023-08-06T10:19:39;0.87;;;0.77;;
16667;SDS011;8447;52.630;4.734;2023-08-06T10:22:08;1.03;;;0.83;;
16667;SDS011;8447;52.630;4.734;2023-08-06T10:24:45;2.23;;;0.80;;
16667;SDS011;8447;52.630;4.734;2023-08-06T10:27:12;3.27;;;0.90;;
16667;SDS011;8447;52.630;4.734;2023-08-06T10:29:39;3.17;;;1.03;;
16667;SDS011;8447;52.630;4.734;2023-08-06T10:32:05;1.70;;;0.93;;
16667;SDS011;8447;52.630;4.734;2023-08-06T10:37:15;3.97;;;1.50;;
16667;SDS011;8447;52.630;4.734;2023-08-06T10:39:47;1.67;;;1.27;;
16667;SDS011;8447;52.630;4.734;2023-08-06T10:42:20;1.83;;;1.00;;
16667;SDS011;8447;52.630;4.734;2023-08-06T10:47:28;4.57;;;1.30;;
16667;SDS011;8447;52.630;4.734;2023-08-06T10:49:54;1.93;;;0.90;;
16667;SDS011;8447;52.630;4.734;2023-08-06T10:52:21;2.60;;;1.23;;
16667;SDS011;8447;52.630;4.734;2023-08-06T10:54:47;2.23;;;1.10;;
16667;SDS011;8447;52.630;4.734;2023-08-06T10:57:14;5.23;;;1.13;;
16667;SDS011;8447;52.630;4.734;2023-08-06T10:59:41;2.97;;;0.90;;
16667;SDS011;8447;52.630;4.734;2023-08-06T11:02:08;1.50;;;1.03;;
16667;SDS011;8447;52.630;4.734;2023-08-06T11:04:35;2.23;;;0.90;;
16667;SDS011;8447;52.630;4.734;2023-08-06T11:07:02;3.70;;;0.70;;
16667;SDS011;8447;52.630;4.734;2023-08-06T11:09:28;2.20;;;0.90;;
16667;SDS011;8447;52.630;4.734;2023-08-06T11:11:54;2.93;;;1.30;;
16667;SDS011;8447;52.630;4.734;2023-08-06T11:14:21;2.33;;;0.90;;
16667;SDS011;8447;52.630;4.734;2023-08-06T11:16:49;1.83;;;1.20;;
16667;SDS011;8447;52.630;4.734;2023-08-06T11:19:16;3.50;;;1.23;;
16667;SDS011;8447;52.630;4.734;2023-08-06T11:21:42;2.23;;;1.00;;
16667;SDS011;8447;52.630;4.734;2023-08-06T11:24:09;2.90;;;1.00;;
16667;SDS011;8447;52.630;4.734;2023-08-06T11:26:36;5.30;;;1.03;;
16667;SDS011;8447;52.630;4.734;2023-08-06T11:29:05;4.77;;;2.70;;
16667;SDS011;8447;52.630;4.734;2023-08-06T11:31:31;1.13;;;1.03;;
16667;SDS011;8447;52.630;4.734;2023-08-06T11:33:59;3.50;;;1.30;;
16667;SDS011;8447;52.630;4.734;2023-08-06T11:36:29;2.37;;;1.77;;
16667;SDS011;8447;52.630;4.734;2023-08-06T11:38:55;1.60;;;1.47;;
16667;SDS011;8447;52.630;4.734;2023-08-06T11:41:22;1.77;;;1.00;;
16667;SDS011;8447;52.630;4.734;2023-08-06T11:43:48;2.30;;;1.00;;
16667;SDS011;8447;52.630;4.734;2023-08-06T11:46:15;2.60;;;1.07;;
16667;SDS011;8447;52.630;4.734;2023-08-06T11:48:50;2.73;;;1.10;;
16667;SDS011;8447;52.630;4.734;2023-08-06T11:51:18;2.20;;;1.10;;
16667;SDS011;8447;52.630;4.734;2023-08-06T11:53:46;3.67;;;1.53;;
16667;SDS011;8447;52.630;4.734;2023-08-06T11:56:14;1.57;;;1.00;;
16667;SDS011;8447;52.630;4.734;2023-08-06T11:58:40;2.90;;;1.10;;
16667;SDS011;8447;52.630;4.734;2023-08-06T12:01:07;1.90;;;0.97;;
16667;SDS011;8447;52.630;4.734;2023-08-06T12:03:38;1.97;;;0.90;;
16667;SDS011;8447;52.630;4.734;2023-08-06T12:06:05;2.40;;;1.20;;
16667;SDS011;8447;52.630;4.734;2023-08-06T12:08:33;2.60;;;0.90;;
16667;SDS011;8447;52.630;4.734;2023-08-06T12:10:59;2.37;;;1.30;;
16667;SDS011;8447;52.630;4.734;2023-08-06T12:13:26;2.27;;;1.40;;
16667;SDS011;8447;52.630;4.734;2023-08-06T12:15:53;1.57;;;1.17;;
16667;SDS011;8447;52.630;4.734;2023-08-06T12:18:22;3.87;;;1.33;;
16667;SDS011;8447;52.630;4.734;2023-08-06T12:20:48;3.90;;;1.20;;
16667;SDS011;8447;52.630;4.734;2023-08-06T12:23:15;1.87;;;1.07;;
16667;SDS011;8447;52.630;4.734;2023-08-06T12:25:42;2.23;;;1.10;;
16667;SDS011;8447;52.630;4.734;2023-08-06T12:28:09;1.97;;;0.97;;
16667;SDS011;8447;52.630;4.734;2023-08-06T12:30:37;1.37;;;1.10;;
16667;SDS011;8447;52.630;4.734;2023-08-06T12:33:06;2.00;;;0.70;;
16667;SDS011;8447;52.630;4.734;2023-08-06T12:35:33;1.33;;;1.00;;
16667;SDS011;8447;52.630;4.734;2023-08-06T12:37:59;2.20;;;0.90;;
16667;SDS011;8447;52.630;4.734;2023-08-06T12:40:25;2.00;;;1.00;;
16667;SDS011;8447;52.630;4.734;2023-08-06T12:42:53;1.20;;;0.77;;
16667;SDS011;8447;52.630;4.734;2023-08-06T12:45:19;2.97;;;1.10;;
16667;SDS011;8447;52.630;4.734;2023-08-06T12:47:46;2.53;;;0.60;;
16667;SDS011;8447;52.630;4.734;2023-08-06T12:50:13;1.47;;;0.70;;
16667;SDS011;8447;52.630;4.734;2023-08-06T12:52:40;1.43;;;0.73;;
16667;SDS011;8447;52.630;4.734;2023-08-06T12:55:06;2.33;;;0.70;;
16667;SDS011;8447;52.630;4.734;2023-08-06T12:57:33;2.17;;;0.90;;
16667;SDS011;8447;52.630;4.734;2023-08-06T13:00:01;3.90;;;0.70;;
16667;SDS011;8447;52.630;4.734;2023-08-06T13:02:27;1.20;;;0.57;;
16667;SDS011;8447;52.630;4.734;2023-08-06T13:04:54;0.53;;;0.50;;
16667;SDS011;8447;52.630;4.734;2023-08-06T13:07:21;1.70;;;0.87;;
16667;SDS011;8447;52.630;4.734;2023-08-06T13:09:47;0.93;;;0.60;;
16667;SDS011;8447;52.630;4.734;2023-08-06T13:12:14;0.40;;;0.40;;
16667;SDS011;8447;52.630;4.734;2023-08-06T13:14:40;2.63;;;0.73;;
16667;SDS011;8447;52.630;4.734;2023-08-06T13:17:08;0.50;;;0.40;;
16667;SDS011;8447;52.630;4.734;2023-08-06T13:19:35;0.83;;;0.70;;
16667;SDS011;8447;52.630;4.734;2023-08-06T13:22:02;1.60;;;0.43;;
16667;SDS011;8447;52.630;4.734;2023-08-06T13:24:32;1.00;;;0.40;;
16667;SDS011;8447;52.630;4.734;2023-08-06T13:26:58;3.33;;;0.63;;
16667;SDS011;8447;52.630;4.734;2023-08-06T13:29:25;7.37;;;1.00;;
16667;SDS011;8447;52.630;4.734;2023-08-06T13:31:52;0.87;;;0.50;;
16667;SDS011;8447;52.630;4.734;2023-08-06T13:34:19;5.10;;;0.50;;
16667;SDS011;8447;52.630;4.734;2023-08-06T13:36:46;0.83;;;0.37;;
16667;SDS011;8447;52.630;4.734;2023-08-06T13:39:12;5.50;;;1.20;;
16667;SDS011;8447;52.630;4.734;2023-08-06T13:41:41;3.73;;;1.13;;
16667;SDS011;8447;52.630;4.734;2023-08-06T13:44:07;5.57;;;1.10;;
16667;SDS011;8447;52.630;4.734;2023-08-06T13:46:34;4.20;;;0.53;;
16667;SDS011;8447;52.630;4.734;2023-08-06T13:49:01;4.53;;;0.57;;
16667;SDS011;8447;52.630;4.734;2023-08-06T13:51:29;7.67;;;1.27;;
16667;SDS011;8447;52.630;4.734;2023-08-06T13:53:55;5.70;;;1.03;;
16667;SDS011;8447;52.630;4.734;2023-08-06T13:56:22;5.43;;;0.93;;
16667;SDS011;8447;52.630;4.734;2023-08-06T13:58:49;4.97;;;1.23;;
16667;SDS011;8447;52.630;4.734;2023-08-06T14:01:16;3.23;;;0.80;;
16667;SDS011;8447;52.630;4.734;2023-08-06T14:03:43;3.60;;;0.70;;
16667;SDS011;8447;52.630;4.734;2023-08-06T14:06:09;4.07;;;0.63;;
16667;SDS011;8447;52.630;4.734;2023-08-06T14:08:37;5.83;;;0.80;;
16667;SDS011;8447;52.630;4.734;2023-08-06T14:11:03;3.07;;;1.20;;
16667;SDS011;8447;52.630;4.734;2023-08-06T14:13:30;0.87;;;0.50;;
16667;SDS011;8447;52.630;4.734;2023-08-06T14:15:56;2.60;;;0.70;;
16667;SDS011;8447;52.630;4.734;2023-08-06T14:18:22;6.23;;;1.10;;
16667;SDS011;8447;52.630;4.734;2023-08-06T14:20:49;2.30;;;0.57;;
16667;SDS011;8447;52.630;4.734;2023-08-06T14:23:15;1.47;;;0.40;;
16667;SDS011;8447;52.630;4.734;2023-08-06T14:25:43;2.87;;;0.60;;
16667;SDS011;8447;52.630;4.734;2023-08-06T14:28:09;2.03;;;0.50;;
16667;SDS011;8447;52.630;4.734;2023-08-06T14:30:36;4.90;;;0.70;;
16667;SDS011;8447;52.630;4.734;2023-08-06T14:33:02;4.87;;;0.90;;
16667;SDS011;8447;52.630;4.734;2023-08-06T14:35:28;3.37;;;0.77;;
16667;SDS011;8447;52.630;4.734;2023-08-06T14:37:55;4.27;;;0.73;;
16667;SDS011;8447;52.630;4.734;2023-08-06T14:40:21;2.47;;;0.80;;
16667;SDS011;8447;52.630;4.734;2023-08-06T14:42:49;9.37;;;0.60;;
16667;SDS011;8447;52.630;4.734;2023-08-06T14:45:15;3.23;;;0.77;;
16667;SDS011;8447;52.630;4.734;2023-08-06T14:47:42;2.47;;;1.13;;
16667;SDS011;8447;52.630;4.734;2023-08-06T14:50:08;13.57;;;1.43;;
16667;SDS011;8447;52.630;4.734;2023-08-06T14:52:35;4.73;;;0.90;;
16667;SDS011;8447;52.630;4.734;2023-08-06T14:55:01;2.20;;;0.60;;
16667;SDS011;8447;52.630;4.734;2023-08-06T14:57:28;2.40;;;0.83;;
16667;SDS011;8447;52.630;4.734;2023-08-06T14:59:56;3.00;;;0.90;;
16667;SDS011;8447;52.630;4.734;2023-08-06T15:02:23;2.50;;;0.63;;
16667;SDS011;8447;52.630;4.734;2023-08-06T15:04:49;3.73;;;0.57;;